createdAt,value
2022-12-08T00:00:19.950Z,69.83
2022-12-08T00:03:08.884Z,70.19
2022-12-08T00:05:57.068Z,69.58
2022-12-08T00:08:43.841Z,70.24
2022-12-08T00:11:13.238Z,70.08
2022-12-08T00:13:42.644Z,69.68
2022-12-08T00:16:13.407Z,69.68
2022-12-08T00:18:42.983Z,69.62
2022-12-08T00:21:13.339Z,69.72
2022-12-08T00:23:42.776Z,69.74
2022-12-08T00:26:11.769Z,69.77
2022-12-08T00:28:41.165Z,69.84
2022-12-08T00:31:10.457Z,69.39
2022-12-08T00:33:39.921Z,69.85
2022-12-08T00:36:09.327Z,69.56
2022-12-08T00:38:40.154Z,69.30
2022-12-08T00:41:10.303Z,69.31
2022-12-08T00:43:39.631Z,69.37
2022-12-08T00:46:08.724Z,69.44
2022-12-08T00:48:38.077Z,69.56
2022-12-08T00:51:07.242Z,69.98
2022-12-08T00:53:36.555Z,70.24
2022-12-08T00:56:07.150Z,70.24
2022-12-08T00:58:36.494Z,69.92
2022-12-08T01:01:11.126Z,69.66
2022-12-08T01:03:40.600Z,69.54
2022-12-08T01:06:09.919Z,69.83
2022-12-08T01:08:39.592Z,69.61
2022-12-08T01:11:12.081Z,69.51
2022-12-08T01:13:41.729Z,69.63
2022-12-08T01:16:11.004Z,69.97
2022-12-08T01:18:40.399Z,69.70
2022-12-08T01:21:09.638Z,69.96
2022-12-08T01:23:39.078Z,69.70
2022-12-08T01:26:10.429Z,69.95
2022-12-08T01:28:39.934Z,69.95
2022-12-08T01:31:12.425Z,69.85
2022-12-08T01:33:41.946Z,70.33
2022-12-08T01:36:11.531Z,70.31
2022-12-08T01:38:40.958Z,69.98
2022-12-08T01:41:11.995Z,69.93
2022-12-08T01:43:52.427Z,70.16
2022-12-08T01:46:21.650Z,70.02
2022-12-08T01:48:51.345Z,69.74
2022-12-08T01:51:20.580Z,70.27
2022-12-08T01:53:49.937Z,70.07
2022-12-08T01:56:22.377Z,70.34
2022-12-08T01:58:53.364Z,70.44
2022-12-08T02:01:22.518Z,70.46
2022-12-08T02:03:53.218Z,70.12
2022-12-08T02:06:22.255Z,70.60
2022-12-08T02:08:51.678Z,70.34
2022-12-08T02:11:22.110Z,69.98
2022-12-08T02:13:51.689Z,69.93
2022-12-08T02:16:24.240Z,69.76
2022-12-08T02:19:29.181Z,70.22
2022-12-08T02:21:48.118Z,69.85
2022-12-08T02:24:19.357Z,70.07
2022-12-08T02:26:56.880Z,70.12
2022-12-08T02:29:33.917Z,70.63
2022-12-08T02:32:08.422Z,69.91
2022-12-08T02:34:39.193Z,69.99
2022-12-08T02:37:09.578Z,69.74
2022-12-08T02:39:40.271Z,69.86
2022-12-08T02:42:10.316Z,69.98
2022-12-08T02:44:40.985Z,69.75
2022-12-08T02:47:10.484Z,69.88
2022-12-08T02:49:41.224Z,69.63
2022-12-08T02:52:30.595Z,69.42
2022-12-08T02:55:00.668Z,69.78
2022-12-08T02:57:31.021Z,69.81
2022-12-08T03:00:08.052Z,69.40
2022-12-08T03:02:41.901Z,69.69
2022-12-08T03:05:15.579Z,69.57
2022-12-08T03:07:46.061Z,69.71
2022-12-08T03:10:17.628Z,69.85
2022-12-08T03:12:47.704Z,69.73
2022-12-08T03:15:17.327Z,69.78
2022-12-08T03:17:47.703Z,69.73
2022-12-08T03:20:19.373Z,69.76
2022-12-08T03:22:48.535Z,69.75
2022-12-08T03:25:18.872Z,69.70
2022-12-08T03:27:47.934Z,69.61
2022-12-08T03:30:17.324Z,69.81
2022-12-08T03:32:48.169Z,69.75
2022-12-08T03:35:19.838Z,69.85
2022-12-08T03:37:48.930Z,69.56
2022-12-08T03:40:20.550Z,69.83
2022-12-08T03:42:51.621Z,69.55
2022-12-08T03:45:21.638Z,69.67
2022-12-08T03:47:50.719Z,69.52
2022-12-08T03:50:23.088Z,69.43
2022-12-08T03:52:52.110Z,69.71
2022-12-08T03:55:22.635Z,70.35
2022-12-08T03:57:51.670Z,70.39
2022-12-08T04:00:21.141Z,70.55
2022-12-08T04:02:50.174Z,70.30
2022-12-08T04:05:19.583Z,70.60
2022-12-08T04:07:50.022Z,70.48
2022-12-08T04:10:19.335Z,70.41
2022-12-08T04:12:48.338Z,70.74
2022-12-08T04:15:17.730Z,70.34
2022-12-08T04:17:46.707Z,70.30
2022-12-08T04:20:16.163Z,69.95
2022-12-08T04:22:45.108Z,70.15
2022-12-08T04:25:16.196Z,70.39
2022-12-08T04:27:45.148Z,70.37
2022-12-08T04:30:14.691Z,70.60
2022-12-08T04:32:47.389Z,70.19
2022-12-08T04:35:17.268Z,70.32
2022-12-08T04:37:46.267Z,69.96
2022-12-08T04:40:17.225Z,70.26
2022-12-08T04:42:46.348Z,69.88
2022-12-08T04:45:15.767Z,70.06
2022-12-08T04:47:44.682Z,70.13
2022-12-08T04:50:14.368Z,70.17
2022-12-08T04:52:43.318Z,70.35
2022-12-08T04:55:12.708Z,69.97
2022-12-08T04:57:43.049Z,69.66
2022-12-08T05:00:13.792Z,70.16
2022-12-08T05:02:42.883Z,70.62
2022-12-08T05:05:12.489Z,70.28
2022-12-08T05:07:41.548Z,69.73
2022-12-08T05:10:11.076Z,70.14
2022-12-08T05:12:40.070Z,70.24
2022-12-08T05:15:11.153Z,69.71
2022-12-08T05:17:40.137Z,69.75
2022-12-08T05:20:10.220Z,69.49
2022-12-08T05:22:39.221Z,69.70
2022-12-08T05:25:08.973Z,70.14
2022-12-08T05:27:38.272Z,69.97
2022-12-08T05:30:08.741Z,69.79
2022-12-08T05:32:39.104Z,69.42
2022-12-08T05:35:08.710Z,69.34
2022-12-08T05:37:37.748Z,69.31
2022-12-08T05:40:07.965Z,69.35
2022-12-08T05:42:37.194Z,69.08
2022-12-08T05:45:07.007Z,69.22
2022-12-08T05:47:36.397Z,69.16
2022-12-08T05:50:08.060Z,69.47
2022-12-08T05:52:37.071Z,69.46
2022-12-08T05:55:06.819Z,69.20
2022-12-08T05:57:35.849Z,69.41
2022-12-08T06:00:05.630Z,69.32
2022-12-08T06:02:35.956Z,69.40
2022-12-08T06:05:05.736Z,69.44
2022-12-08T06:07:36.121Z,69.14
2022-12-08T06:10:06.014Z,69.07
2022-12-08T06:12:35.242Z,69.13
2022-12-08T06:15:04.753Z,69.19
2022-12-08T06:17:33.759Z,69.17
2022-12-08T06:20:03.342Z,69.40
2022-12-08T06:22:32.627Z,69.10
2022-12-08T06:25:06.110Z,69.46
2022-12-08T06:27:38.704Z,69.23
2022-12-08T06:30:08.620Z,69.34
2022-12-08T06:32:37.588Z,69.43
2022-12-08T06:35:07.342Z,69.43
2022-12-08T06:37:36.371Z,69.41
2022-12-08T06:40:08.059Z,69.53
2022-12-08T06:42:47.020Z,69.21
2022-12-08T06:45:17.325Z,69.40
2022-12-08T06:47:46.407Z,69.39
2022-12-08T06:50:15.703Z,69.13
2022-12-08T06:52:58.248Z,69.27
2022-12-08T06:58:22.782Z,69.29
2022-12-08T07:00:52.337Z,69.36
2022-12-08T07:03:21.304Z,69.51
2022-12-08T07:05:50.678Z,69.42
2022-12-08T07:08:19.962Z,69.14
2022-12-08T07:10:50.811Z,69.43
2022-12-08T07:13:19.839Z,69.53
2022-12-08T07:15:49.254Z,69.34
2022-12-08T07:18:18.385Z,69.31
2022-12-08T07:20:47.714Z,69.08
2022-12-08T07:23:16.668Z,69.05
2022-12-08T07:25:46.045Z,68.96
2022-12-08T07:28:16.473Z,68.75
2022-12-08T07:30:45.904Z,68.71
2022-12-08T07:33:15.000Z,68.90
2022-12-08T07:35:49.122Z,68.76
2022-12-08T07:38:18.463Z,68.76
2022-12-08T07:40:47.848Z,69.12
2022-12-08T07:43:18.188Z,69.04
2022-12-08T07:45:47.971Z,68.95
2022-12-08T07:48:17.003Z,69.04
2022-12-08T07:50:46.655Z,68.78
2022-12-08T07:53:15.825Z,68.69
2022-12-08T07:55:45.305Z,68.98
2022-12-08T07:58:14.278Z,68.96
2022-12-08T08:00:45.235Z,68.70
2022-12-08T08:03:14.412Z,68.48
2022-12-08T08:05:44.244Z,68.83
2022-12-08T08:08:13.350Z,68.88
2022-12-08T08:10:42.777Z,68.83
2022-12-08T08:13:11.735Z,68.41
2022-12-08T08:15:41.543Z,68.37
2022-12-08T08:18:11.997Z,68.83
2022-12-08T08:20:41.712Z,69.37
2022-12-08T08:23:10.741Z,68.53
2022-12-08T08:25:40.082Z,68.82
2022-12-08T08:28:09.072Z,68.70
2022-12-08T08:30:38.458Z,69.00
2022-12-08T08:33:07.553Z,68.71
2022-12-08T08:35:38.450Z,68.80
2022-12-08T08:38:07.462Z,69.11
2022-12-08T08:40:36.772Z,69.08
2022-12-08T08:43:06.213Z,68.76
2022-12-08T08:45:35.531Z,68.89
2022-12-08T08:48:04.682Z,68.76
2022-12-08T08:50:37.501Z,68.59
2022-12-08T08:53:08.376Z,68.96
2022-12-08T08:55:39.901Z,68.69
2022-12-08T08:58:09.023Z,68.75
2022-12-08T09:00:38.326Z,68.48
2022-12-08T09:03:07.377Z,68.45
2022-12-08T09:05:36.775Z,68.22
2022-12-08T09:08:05.982Z,68.38
2022-12-08T09:10:36.805Z,67.99
2022-12-08T09:13:05.752Z,68.22
2022-12-08T09:15:35.263Z,68.32
2022-12-08T09:18:06.806Z,68.21
2022-12-08T09:20:36.559Z,68.45
2022-12-08T09:23:05.563Z,68.69
2022-12-08T09:25:36.297Z,68.40
2022-12-08T09:28:07.162Z,68.36
2022-12-08T09:30:36.632Z,68.39
2022-12-08T09:33:05.612Z,68.48
2022-12-08T09:35:35.049Z,68.48
2022-12-08T09:38:04.040Z,68.08
2022-12-08T09:40:33.831Z,68.09
2022-12-08T09:43:05.824Z,68.19
2022-12-08T09:45:35.803Z,67.96
2022-12-08T09:48:06.745Z,67.97
2022-12-08T09:50:36.790Z,68.12
2022-12-08T09:53:07.419Z,67.97
2022-12-08T09:55:38.799Z,67.72
2022-12-08T09:58:11.513Z,68.11
2022-12-08T10:00:40.992Z,68.16
2022-12-08T10:03:16.240Z,68.35
2022-12-08T10:05:48.187Z,67.89
2022-12-08T10:08:20.468Z,68.41
2022-12-08T10:10:51.732Z,68.11
2022-12-08T10:13:23.139Z,68.35
2022-12-08T10:15:54.755Z,68.04
2022-12-08T10:18:25.186Z,68.38
2022-12-08T10:20:54.710Z,68.28
2022-12-08T10:23:29.208Z,67.76
2022-12-08T10:26:00.800Z,67.69
2022-12-08T10:28:31.583Z,67.60
2022-12-08T10:31:01.275Z,67.94
2022-12-08T10:33:32.651Z,67.80
2022-12-08T10:36:03.260Z,67.68
2022-12-08T10:38:32.818Z,67.88
2022-12-08T10:41:05.960Z,67.71
2022-12-08T10:43:37.338Z,67.89
2022-12-08T10:46:11.617Z,67.87
2022-12-08T10:48:48.429Z,67.81
2022-12-08T10:51:24.777Z,67.54
2022-12-08T10:53:53.938Z,67.66
2022-12-08T10:56:25.921Z,67.93
2022-12-08T10:59:07.395Z,67.90
2022-12-08T11:01:37.952Z,67.79
2022-12-08T11:04:10.492Z,67.74
2022-12-08T11:06:40.770Z,67.51
2022-12-08T11:09:23.619Z,67.76
2022-12-08T11:11:53.749Z,67.82
2022-12-08T11:14:25.204Z,67.87
2022-12-08T11:16:55.234Z,68.16
2022-12-08T11:19:27.775Z,67.64
2022-12-08T11:21:57.197Z,67.91
2022-12-08T11:24:29.294Z,68.05
2022-12-08T11:27:01.094Z,67.79
2022-12-08T11:29:32.640Z,67.79
2022-12-08T11:32:02.390Z,67.97
2022-12-08T11:34:32.841Z,67.72
2022-12-08T11:37:02.234Z,67.95
2022-12-08T11:39:31.332Z,67.88
2022-12-08T11:42:00.686Z,67.79
2022-12-08T11:44:32.958Z,67.84
2022-12-08T11:47:02.800Z,67.91
2022-12-08T11:49:33.882Z,67.99
2022-12-08T11:52:05.162Z,68.26
2022-12-08T11:54:34.493Z,67.78
2022-12-08T11:57:04.339Z,67.62
2022-12-08T11:59:35.751Z,67.87
2022-12-08T12:02:05.938Z,67.68
2022-12-08T12:04:37.110Z,67.72
2022-12-08T12:07:12.848Z,67.80
2022-12-08T12:09:45.490Z,67.92
2022-12-08T12:12:18.257Z,68.11
2022-12-08T12:14:52.600Z,68.36
2022-12-08T12:17:24.911Z,67.89
2022-12-08T12:19:53.936Z,67.96
2022-12-08T12:22:23.274Z,68.01
2022-12-08T12:24:52.609Z,68.29
2022-12-08T12:27:23.814Z,68.30
2022-12-08T12:29:56.497Z,68.37
2022-12-08T12:32:26.047Z,68.27
2022-12-08T12:34:55.812Z,68.60
2022-12-08T12:37:25.374Z,68.41
2022-12-08T12:39:56.547Z,68.49
2022-12-08T12:42:36.520Z,68.55
2022-12-08T12:45:21.141Z,68.45
2022-12-08T12:47:55.867Z,68.60
2022-12-08T12:50:44.650Z,68.37
2022-12-08T12:53:34.956Z,68.47
2022-12-08T12:56:04.499Z,68.33
2022-12-08T12:58:42.938Z,68.38
2022-12-08T13:01:30.732Z,68.73
2022-12-08T13:04:06.323Z,68.29
2022-12-08T13:06:37.286Z,68.44
2022-12-08T13:09:07.396Z,68.58
2022-12-08T13:11:49.728Z,68.47
2022-12-08T13:14:33.756Z,68.38
2022-12-08T13:17:06.990Z,68.39
2022-12-08T13:19:37.849Z,68.55
2022-12-08T13:22:21.724Z,68.82
2022-12-08T13:24:51.091Z,68.60
2022-12-08T13:27:30.085Z,68.41
2022-12-08T13:30:17.875Z,68.83
2022-12-08T13:33:17.218Z,68.68
2022-12-08T13:35:48.090Z,68.41
2022-12-08T13:38:17.758Z,68.68
2022-12-08T13:40:47.694Z,68.68
2022-12-08T13:43:19.065Z,68.69
2022-12-08T13:46:52.559Z,68.73
2022-12-08T13:50:32.404Z,68.83
2022-12-08T13:57:18.763Z,68.60
2022-12-08T13:59:48.213Z,68.56
2022-12-08T14:02:18.160Z,68.41
2022-12-08T14:05:17.623Z,68.84
2022-12-08T14:07:38.862Z,68.56
2022-12-08T14:10:09.199Z,68.75
2022-12-08T14:12:38.450Z,68.90
2022-12-08T14:15:08.115Z,68.49
2022-12-08T14:17:37.492Z,69.00
2022-12-08T14:20:08.381Z,68.79
2022-12-08T14:22:40.072Z,68.75
2022-12-08T14:25:11.472Z,68.87
2022-12-08T14:27:40.833Z,68.86
2022-12-08T14:30:14.768Z,68.93
2022-12-08T14:32:44.504Z,68.79
2022-12-08T14:35:16.464Z,68.97
2022-12-08T14:37:47.853Z,68.98
2022-12-08T14:40:23.484Z,68.74
2022-12-08T14:42:53.857Z,68.87
2022-12-08T14:45:22.947Z,68.89
2022-12-08T14:47:52.445Z,68.58
2022-12-08T14:50:51.678Z,68.75
2022-12-08T14:53:22.552Z,68.73
2022-12-08T14:55:52.499Z,68.58
2022-12-08T14:58:24.090Z,68.86
2022-12-08T15:00:54.683Z,68.66
2022-12-08T15:03:24.179Z,68.95
2022-12-08T15:05:53.569Z,68.91
2022-12-08T15:08:24.372Z,68.89
2022-12-08T15:11:08.359Z,68.79
2022-12-08T15:13:37.766Z,68.78
2022-12-08T15:16:21.679Z,68.88
2022-12-08T15:18:52.469Z,69.02
2022-12-08T15:21:21.551Z,69.03
2022-12-08T15:23:52.484Z,68.95
2022-12-08T15:26:22.140Z,68.77
2022-12-08T15:28:51.473Z,69.13
2022-12-08T15:31:20.666Z,69.03
2022-12-08T15:33:50.112Z,69.12
2022-12-08T15:36:19.110Z,68.93
2022-12-08T15:38:48.467Z,69.04
2022-12-08T15:41:18.896Z,69.27
2022-12-08T15:43:48.294Z,69.22
2022-12-08T15:46:17.359Z,69.03
2022-12-08T15:48:46.751Z,69.01
2022-12-08T15:51:15.717Z,68.79
2022-12-08T15:53:45.173Z,69.03
2022-12-08T15:56:29.593Z,68.88
2022-12-08T15:59:00.475Z,69.10
2022-12-08T16:01:29.555Z,69.20
2022-12-08T16:04:27.977Z,69.14
2022-12-08T16:09:38.609Z,68.95
2022-12-08T16:12:25.535Z,68.97
2022-12-08T16:17:45.855Z,69.05
2022-12-08T16:20:15.938Z,69.31
2022-12-08T16:22:54.512Z,69.41
2022-12-08T16:25:41.009Z,69.01
2022-12-08T16:28:52.325Z,69.45
2022-12-08T16:31:13.301Z,69.23
2022-12-08T16:33:43.506Z,69.20
2022-12-08T16:36:13.007Z,69.45
2022-12-08T16:38:42.090Z,69.39
2022-12-08T16:41:42.601Z,69.32
2022-12-08T16:44:11.815Z,69.31
2022-12-08T16:46:42.752Z,69.56
2022-12-08T16:49:11.779Z,69.42
2022-12-08T16:51:41.249Z,69.41
2022-12-08T16:54:10.253Z,69.52
2022-12-08T16:56:40.039Z,69.45
2022-12-08T16:59:09.118Z,69.07
2022-12-08T17:01:38.544Z,69.44
2022-12-08T17:06:58.644Z,69.25
2022-12-08T17:09:28.613Z,69.33
2022-12-08T17:12:03.512Z,69.37
2022-12-08T17:14:33.995Z,69.20
2022-12-08T17:17:03.509Z,69.27
2022-12-08T17:19:34.008Z,69.54
2022-12-08T17:22:03.724Z,69.40
2022-12-08T17:24:32.986Z,69.32
2022-12-08T17:27:04.428Z,69.60
2022-12-08T17:29:33.737Z,69.53
2022-12-08T17:32:03.248Z,69.39
2022-12-08T17:34:34.073Z,69.40
2022-12-08T17:37:03.728Z,69.69
2022-12-08T17:39:32.742Z,69.58
2022-12-08T17:42:02.142Z,69.48
2022-12-08T17:44:31.191Z,69.27
2022-12-08T17:47:00.606Z,69.47
2022-12-08T17:49:30.760Z,69.69
2022-12-08T17:52:01.913Z,69.42
2022-12-08T17:54:31.301Z,69.27
2022-12-08T17:57:00.681Z,69.58
2022-12-08T17:59:30.050Z,69.51
2022-12-08T18:01:59.869Z,69.55
2022-12-08T18:04:29.124Z,69.44
2022-12-08T18:07:00.451Z,69.67
2022-12-08T18:09:32.885Z,69.66
2022-12-08T18:12:02.374Z,69.37
2022-12-08T18:14:31.379Z,69.20
2022-12-08T18:17:00.874Z,69.58
2022-12-08T18:19:29.961Z,69.69
2022-12-08T18:21:59.363Z,69.31
2022-12-08T18:24:29.240Z,69.38
2022-12-08T18:27:00.072Z,69.40
2022-12-08T18:29:29.171Z,69.39
2022-12-08T18:31:58.503Z,69.31
2022-12-08T18:34:27.556Z,69.45
2022-12-08T18:36:56.901Z,69.44
2022-12-08T18:39:26.230Z,69.34
2022-12-08T18:41:55.778Z,69.41
2022-12-08T18:44:26.450Z,69.77
2022-12-08T18:46:55.893Z,69.59
2022-12-08T18:49:25.073Z,69.64
2022-12-08T18:51:54.369Z,69.48
2022-12-08T18:54:37.011Z,69.35
2022-12-08T18:57:12.761Z,69.46
2022-12-08T18:59:43.177Z,69.40
2022-12-08T19:02:12.653Z,69.43
2022-12-08T19:04:42.294Z,69.45
2022-12-08T19:07:11.777Z,69.42
2022-12-08T19:09:42.209Z,69.51
2022-12-08T19:12:13.065Z,69.73
2022-12-08T19:14:43.519Z,69.59
2022-12-08T19:17:13.053Z,69.42
2022-12-08T19:19:42.078Z,69.59
2022-12-08T19:22:12.397Z,69.67
2022-12-08T19:24:41.419Z,69.58
2022-12-08T19:27:10.989Z,69.59
2022-12-08T19:29:40.015Z,69.65
2022-12-08T19:32:10.781Z,69.69
2022-12-08T19:34:39.807Z,69.34
2022-12-08T19:37:12.632Z,69.70
2022-12-08T19:39:59.412Z,69.68
2022-12-08T19:42:46.423Z,69.23
2022-12-08T19:45:16.086Z,69.76
2022-12-08T19:47:46.918Z,69.48
2022-12-08T19:50:34.186Z,69.75
2022-12-08T19:53:03.666Z,69.22
2022-12-08T19:55:32.776Z,69.39
2022-12-08T19:58:02.996Z,69.36
2022-12-08T20:00:32.345Z,69.64
2022-12-08T20:03:03.852Z,69.55
2022-12-08T20:05:33.388Z,69.46
2022-12-08T20:08:02.943Z,69.47
2022-12-08T20:10:33.846Z,69.46
2022-12-08T20:13:20.716Z,69.37
2022-12-08T20:15:50.030Z,69.40
2022-12-08T20:18:21.036Z,69.23
2022-12-08T20:20:50.252Z,69.38
2022-12-08T20:23:19.701Z,69.30
2022-12-08T20:25:48.878Z,69.43
2022-12-08T20:28:19.139Z,69.20
2022-12-08T20:30:49.238Z,69.08
2022-12-08T20:33:20.642Z,68.96
2022-12-08T20:35:51.585Z,69.12
2022-12-08T20:38:24.212Z,69.23
2022-12-08T20:40:53.465Z,69.03
2022-12-08T20:43:22.862Z,68.98
2022-12-08T20:45:52.048Z,69.34
2022-12-08T20:48:23.000Z,69.35
2022-12-08T20:50:52.400Z,69.08
2022-12-08T20:53:21.901Z,69.41
2022-12-08T20:55:51.149Z,69.84
2022-12-08T20:58:20.913Z,69.68
2022-12-08T21:00:50.218Z,69.41
2022-12-08T21:03:19.861Z,69.69
2022-12-08T21:05:51.375Z,69.58
2022-12-08T21:08:21.002Z,69.85
2022-12-08T21:10:54.409Z,69.51
2022-12-08T21:13:23.884Z,69.67
2022-12-08T21:15:53.037Z,69.56
2022-12-08T21:18:22.712Z,69.26
2022-12-08T21:20:53.514Z,69.22
2022-12-08T21:23:23.014Z,69.57
2022-12-08T21:25:52.340Z,69.25
2022-12-08T21:28:21.846Z,69.74
2022-12-08T21:30:51.041Z,69.66
2022-12-08T21:33:20.568Z,69.57
2022-12-08T21:35:49.872Z,69.39
2022-12-08T21:38:20.936Z,69.67
2022-12-08T21:40:50.120Z,69.22
2022-12-08T21:43:19.793Z,69.83
2022-12-08T21:45:48.819Z,69.70
2022-12-08T21:48:18.546Z,69.77
2022-12-08T21:50:47.800Z,69.56
2022-12-08T21:53:17.217Z,69.71
2022-12-08T21:55:48.041Z,69.61
2022-12-08T21:58:17.649Z,69.74
2022-12-08T22:00:46.740Z,69.89
2022-12-08T22:03:16.656Z,69.56
2022-12-08T22:05:45.748Z,69.77
2022-12-08T22:08:15.354Z,69.78
2022-12-08T22:10:49.316Z,69.79
2022-12-08T22:13:18.880Z,69.88
2022-12-08T22:15:56.220Z,69.78
2022-12-08T22:18:26.293Z,69.77
2022-12-08T22:20:55.346Z,69.71
2022-12-08T22:23:24.715Z,69.62
2022-12-08T22:25:59.259Z,69.36
2022-12-08T22:28:32.282Z,69.41
2022-12-08T22:31:01.348Z,69.60
2022-12-08T22:33:30.893Z,69.50
2022-12-08T22:36:04.748Z,69.56
2022-12-08T22:38:37.858Z,69.51
2022-12-08T22:41:08.424Z,69.78
2022-12-08T22:43:38.158Z,69.50
2022-12-08T22:46:12.145Z,69.39
2022-12-08T22:48:42.220Z,69.11
2022-12-08T22:51:11.347Z,69.44
2022-12-08T22:53:40.772Z,69.38
2022-12-08T22:56:12.678Z,69.21
2022-12-08T22:58:42.418Z,69.41
2022-12-08T23:01:18.165Z,69.47
2022-12-08T23:03:47.867Z,69.49
2022-12-08T23:06:17.068Z,68.80
2022-12-08T23:08:46.724Z,69.21
2022-12-08T23:11:17.177Z,69.12
2022-12-08T23:13:46.672Z,69.26
2022-12-08T23:16:15.745Z,70.05
2022-12-08T23:18:45.853Z,70.16
2022-12-08T23:21:33.078Z,69.81
2022-12-08T23:24:19.695Z,69.65
2022-12-08T23:27:14.174Z,69.77
2022-12-08T23:29:43.505Z,70.40
2022-12-08T23:32:12.531Z,70.16
2022-12-08T23:34:41.919Z,70.75
2022-12-08T23:37:10.800Z,70.37
2022-12-08T23:39:40.033Z,69.63
2022-12-08T23:42:08.989Z,69.38
2022-12-08T23:44:39.692Z,69.42
2022-12-08T23:47:08.667Z,69.14
2022-12-08T23:49:37.985Z,69.66
2022-12-08T23:52:06.893Z,69.61
2022-12-08T23:54:36.511Z,69.68
2022-12-08T23:57:05.401Z,69.48
2022-12-08T23:59:34.869Z,69.65
